Alder Grove, Washington
Current Conditions -  °F | °C
As of 4:53 AM on Friday 31 Oct 2014 (Local Time) from KSHN Reporting Station
Light Rain Light Rain  
Wind Chill: 51°   Ceiling: 400
Heat Index: 51°   Visibility: 5mi
Dew Point: 50°   Wind: 3mph
Humidity: 96%   Direction: 220°SW
Pressure: 29.69"   Gusts: NA
Location:  47.555°N, 123.746°W
Report Text: KSHN 311153Z AUTO 22003KT 5SM -RA BR BKN004 OVC009 11/10 A2969 RMK AO2 SLP056 P0004 60015 70079 T01060100 10117 20106 56018 TSNO $
Loading
Personal Weather Stations






























Interactive Weather Map
Tropical Storm Tracking
New forecast layout! Learn more

10-Day Weather Forecast

Advertisements
Track Severe Weather on mobile